Time;durP1;ratioP1;P1;durP2;ratioP2;P2;SDS_P1;SDS_P2;PMS_P1;PMS_P2;Temp;Humidity;BMP_temperature;BMP_pressure;BME280_temperature;BME280_humidity;BME280_pressure;Samples;Min_cycle;Max_cycle;Signal;HPM_P1;HPM_P2
2021/10/01 00:00:27;;;;;;;32.78;14.35;;;;;;;6.66;71.80;101649.06;5112591;28;20527;-78
2021/10/01 00:02:54;;;;;;;35.22;13.95;;;;;;;6.63;71.53;101643.00;5093981;28;20044;-79
2021/10/01 00:05:21;;;;;;;29.15;12.90;;;;;;;6.62;71.98;101648.31;5128601;27;20050;-79
2021/10/01 00:07:48;;;;;;;29.60;13.43;;;;;;;6.62;72.06;101646.53;5111137;27;20083;-78
2021/10/01 00:10:15;;;;;;;39.15;14.00;;;;;;;6.59;71.86;101644.00;5122938;27;20047;-74
2021/10/01 00:12:41;;;;;;;31.67;13.23;;;;;;;6.55;71.61;101644.97;5110746;28;20079;-77
2021/10/01 00:15:07;;;;;;;38.75;15.52;;;;;;;6.65;71.49;101648.19;5112321;28;20524;-78
2021/10/01 00:17:33;;;;;;;36.90;14.35;;;;;;;6.67;71.54;101645.50;5111976;28;20036;-76
2021/10/01 00:20:00;;;;;;;33.97;13.35;;;;;;;6.65;71.81;101637.69;5127875;27;20042;-78
2021/10/01 00:22:25;;;;;;;33.22;13.00;;;;;;;6.57;71.54;101637.91;5132609;27;20439;-76
2021/10/01 00:24:51;;;;;;;36.58;13.65;;;;;;;6.58;72.30;101641.38;5132991;27;20053;-77
2021/10/01 00:27:18;;;;;;;31.75;13.45;;;;;;;6.52;71.96;101639.81;5131067;27;20051;-77
2021/10/01 00:29:44;;;;;;;34.47;14.10;;;;;;;6.53;71.46;101644.16;5126620;27;20039;-78
2021/10/01 00:32:10;;;;;;;30.88;13.45;;;;;;;6.54;72.59;101640.63;5131487;27;20050;-78
2021/10/01 00:34:36;;;;;;;33.60;12.77;;;;;;;6.58;72.02;101637.00;5131251;28;20051;-76
2021/10/01 00:37:03;;;;;;;31.20;12.85;;;;;;;6.56;72.14;101644.06;5102543;28;20119;-78
2021/10/01 00:39:29;;;;;;;29.70;13.18;;;;;;;6.50;71.64;101646.88;5112224;27;20044;-76
2021/10/01 00:41:55;;;;;;;33.95;13.95;;;;;;;6.48;71.94;101646.06;5111186;28;20043;-76
2021/10/01 00:44:21;;;;;;;31.42;12.73;;;;;;;6.52;71.90;101642.44;5127309;28;20069;-77
2021/10/01 00:46:47;;;;;;;29.65;12.77;;;;;;;6.56;71.98;101638.81;5112418;28;20070;-77
2021/10/01 00:49:12;;;;;;;31.60;12.90;;;;;;;6.48;72.64;101633.78;5111204;28;20055;-75
2021/10/01 00:51:39;;;;;;;32.72;12.80;;;;;;;6.49;72.12;101637.25;5117025;28;20035;-76
2021/10/01 00:54:06;;;;;;;32.60;13.43;;;;;;;6.48;72.33;101640.81;5124578;28;20068;-80
2021/10/01 00:56:32;;;;;;;28.73;12.18;;;;;;;6.52;71.89;101644.19;5116762;28;20047;-75
2021/10/01 00:58:58;;;;;;;30.98;11.98;;;;;;;6.42;72.06;101643.63;5129459;28;20423;-76
2021/10/01 01:01:24;;;;;;;33.10;12.60;;;;;;;6.44;72.25;101645.28;5131995;27;20050;-78
2021/10/01 01:03:57;;;;;;;28.83;13.75;;;;;;;6.59;71.85;101643.13;5132391;28;20040;-75
2021/10/01 01:06:43;;;;;;;32.28;12.60;;;;;;;6.62;71.64;101643.88;5119528;27;20052;-77
2021/10/01 01:09:24;;;;;;;31.00;11.75;;;;;;;6.70;72.11;101642.81;5111630;28;20043;-78
2021/10/01 01:12:08;;;;;;;30.27;12.50;;;;;;;6.65;71.74;101650.81;5112113;28;20068;-80
2021/10/01 01:15:08;;;;;;;31.17;12.65;;;;;;;6.50;71.96;101638.97;5125096;27;20039;-77
2021/10/01 01:18:00;;;;;;;29.75;12.10;;;;;;;6.58;72.51;101642.25;5105670;27;20071;-77
2021/10/01 01:20:37;;;;;;;31.65;12.20;;;;;;;6.53;72.41;101646.78;5131706;28;20522;-78
2021/10/01 01:23:28;;;;;;;29.80;12.60;;;;;;;6.44;72.47;101645.28;5110476;28;20039;-81
2021/10/01 01:26:25;;;;;;;28.13;13.18;;;;;;;6.39;72.60;101639.31;5120917;27;20506;-76
2021/10/01 01:28:58;;;;;;;31.27;12.07;;;;;;;6.37;73.08;101637.59;5097022;28;20043;-78
2021/10/01 01:31:34;;;;;;;33.90;13.38;;;;;;;6.42;72.83;101638.34;5128426;28;20043;-77
2021/10/01 01:34:01;;;;;;;31.60;12.18;;;;;;;6.30;72.81;101637.75;5093841;28;20068;-77
2021/10/01 01:36:28;;;;;;;28.75;12.73;;;;;;;6.29;73.87;101643.94;5093625;28;20421;-77
2021/10/01 01:38:55;;;;;;;32.45;12.57;;;;;;;6.32;73.39;101641.22;5076385;28;20039;-76
2021/10/01 01:41:22;;;;;;;30.90;13.02;;;;;;;6.36;73.25;101638.53;5108281;28;20043;-76
2021/10/01 01:43:49;;;;;;;32.35;12.38;;;;;;;6.32;73.22;101643.84;5112321;28;20046;-76
2021/10/01 01:46:16;;;;;;;33.10;13.13;;;;;;;6.38;73.42;101642.84;5116112;28;20039;-77
2021/10/01 01:48:42;;;;;;;30.33;12.35;;;;;;;6.39;73.63;101636.69;5114513;28;20040;-78
2021/10/01 01:51:08;;;;;;;25.15;11.55;;;;;;;6.37;73.34;101645.47;5114018;28;20459;-77
2021/10/01 01:53:35;;;;;;;31.05;13.25;;;;;;;6.39;73.50;101651.56;5097554;28;20043;-76
2021/10/01 01:56:02;;;;;;;35.20;12.75;;;;;;;6.35;73.42;101645.53;5116066;28;20047;-78
2021/10/01 01:58:29;;;;;;;32.55;12.30;;;;;;;6.33;72.66;101642.09;5098758;28;20047;-78
2021/10/01 02:01:13;;;;;;;33.05;12.05;;;;;;;6.32;73.49;101638.59;5086373;28;20039;-78
2021/10/01 02:03:56;;;;;;;28.20;12.82;;;;;;;6.46;73.20;101637.34;5123857;27;20039;-79
2021/10/01 02:06:26;;;;;;;29.15;12.00;;;;;;;6.42;72.51;101635.72;5116406;27;20035;-79
2021/10/01 02:08:53;;;;;;;29.25;12.65;;;;;;;6.40;72.68;101632.28;5132374;27;20067;-77
2021/10/01 02:11:20;;;;;;;29.33;12.40;;;;;;;6.48;73.35;101635.56;5116768;27;20054;-78
2021/10/01 02:13:46;;;;;;;28.30;12.07;;;;;;;6.52;72.50;101642.44;5134384;27;20038;-78
2021/10/01 02:16:15;;;;;;;24.40;12.15;;;;;;;6.45;72.71;101640.88;5134843;27;20038;-78
2021/10/01 02:18:41;;;;;;;25.67;11.45;;;;;;;6.46;72.11;101637.34;5131543;27;20123;-79
2021/10/01 02:21:08;;;;;;;30.60;11.60;;;;;;;6.49;72.43;101639.88;5110258;28;20050;-79
2021/10/01 02:23:35;;;;;;;29.35;13.00;;;;;;;6.49;72.47;101637.25;5097252;27;20124;-78
2021/10/01 02:28:57;;;;;;;29.92;11.88;;;;;;;6.30;72.30;101637.75;5099123;28;20096;-80
2021/10/01 02:31:29;;;;;;;29.45;11.90;;;;;;;6.27;72.77;101643.13;5095476;28;20078;-77
2021/10/01 02:34:01;;;;;;;35.20;12.45;;;;;;;6.24;72.93;101639.72;5096348;28;20043;-76
2021/10/01 02:36:26;;;;;;;26.98;11.95;;;;;;;6.19;72.56;101645.06;5122629;27;20046;-77
2021/10/01 02:38:53;;;;;;;31.23;11.82;;;;;;;6.19;73.24;101639.81;5122671;27;20047;-78
2021/10/01 02:41:20;;;;;;;31.73;12.50;;;;;;;6.23;73.36;101644.13;5107049;28;20039;-77
2021/10/01 02:43:45;;;;;;;27.65;12.02;;;;;;;6.26;72.88;101640.53;5116758;27;20083;-77
2021/10/01 02:46:11;;;;;;;30.75;11.57;;;;;;;6.20;73.21;101646.81;5130409;27;20054;-76
2021/10/01 02:48:38;;;;;;;33.10;11.68;;;;;;;6.13;73.74;101647.88;5111950;28;20126;-75
2021/10/01 02:51:11;;;;;;;33.58;12.40;;;;;;;6.01;73.31;101638.56;5115974;27;20528;-74
2021/10/01 02:54:01;;;;;;;30.33;11.57;;;;;;;6.10;73.66;101635.69;5112052;28;20522;-75
2021/10/01 02:56:39;;;;;;;29.35;11.25;;;;;;;6.01;73.61;101638.56;5131459;27;20492;-77
2021/10/01 02:59:05;;;;;;;27.65;11.27;;;;;;;6.01;73.71;101638.56;5115562;27;20094;-78
2021/10/01 03:01:31;;;;;;;32.28;13.07;;;;;;;5.97;73.94;101648.25;5115081;27;20409;-73
2021/10/01 03:04:05;;;;;;;28.25;12.52;;;;;;;5.93;73.93;101651.88;5108419;28;20036;-77
2021/10/01 03:06:34;;;;;;;80.30;32.88;;;;;;;5.91;73.86;101650.19;5111847;28;20098;-80
2021/10/01 03:09:02;;;;;;;28.90;11.63;;;;;;;5.96;73.93;101649.16;5112022;28;20048;-76
2021/10/01 03:11:30;;;;;;;35.38;11.82;;;;;;;5.98;73.12;101647.38;5111735;28;20047;-77
2021/10/01 03:13:57;;;;;;;28.80;11.80;;;;;;;6.04;73.74;101642.88;5120043;27;20042;-77
2021/10/01 03:16:23;;;;;;;35.13;12.18;;;;;;;5.99;72.85;101643.88;5111347;28;20074;-76
2021/10/01 03:18:50;;;;;;;33.33;12.48;;;;;;;5.94;73.16;101645.72;5111705;28;20126;-80
2021/10/01 03:21:18;;;;;;;26.80;10.80;;;;;;;5.98;73.29;101650.00;5116009;27;20039;-80
2021/10/01 03:23:46;;;;;;;29.85;11.70;;;;;;;5.98;73.41;101643.84;5102776;27;20595;-77
2021/10/01 03:26:13;;;;;;;64.15;23.73;;;;;;;5.92;72.90;101642.25;5097312;27;20035;-77
2021/10/01 03:28:41;;;;;;;34.42;12.48;;;;;;;5.96;73.19;101643.91;5113911;27;20067;-78
2021/10/01 03:31:06;;;;;;;;;;;;;;;6.05;72.76;101647.22;5101210;27;20036;-78
2021/10/01 03:33:35;;;;;;;32.67;11.75;;;;;;;6.09;73.25;101648.88;5121488;27;20002;-78
2021/10/01 03:36:01;;;;;;;27.80;10.48;;;;;;;6.02;72.75;101650.81;5130777;27;20103;-76
2021/10/01 03:38:27;;;;;;;32.83;12.00;;;;;;;6.01;73.03;101653.44;5112462;27;20122;-77
2021/10/01 03:41:00;;;;;;;29.83;12.02;;;;;;;6.18;72.51;101647.75;5102543;28;20036;-79
2021/10/01 03:43:27;;;;;;;28.05;11.68;;;;;;;6.24;72.45;101652.84;5138322;27;20063;-76
2021/10/01 03:45:57;;;;;;;28.55;11.27;;;;;;;6.27;72.37;101652.78;5128319;27;20437;-77
2021/10/01 03:48:24;;;;;;;27.33;11.27;;;;;;;6.15;72.24;101653.94;5123670;27;20043;-81
2021/10/01 03:50:58;;;;;;;27.45;11.15;;;;;;;6.20;72.47;101652.06;5117881;27;20045;-78
2021/10/01 03:53:25;;;;;;;29.52;11.75;;;;;;;6.12;72.65;101654.06;5119980;27;20047;-79
2021/10/01 03:55:52;;;;;;;32.10;11.55;;;;;;;6.14;72.39;101657.47;5125707;27;20046;-77
2021/10/01 03:58:18;;;;;;;112.25;39.47;;;;;;;6.18;72.37;101659.16;5117283;27;20165;-74
2021/10/01 04:00:45;;;;;;;33.97;13.07;;;;;;;6.13;72.08;101654.00;5121798;27;20043;-74
2021/10/01 04:03:15;;;;;;;27.45;12.05;;;;;;;6.02;72.79;101653.44;5115525;27;20067;-79
2021/10/01 04:05:46;;;;;;;33.33;11.88;;;;;;;6.01;72.60;101650.81;5114518;27;20032;-81
2021/10/01 04:08:13;;;;;;;27.65;11.90;;;;;;;6.03;71.93;101659.53;5094476;28;20055;-81
2021/10/01 04:10:43;;;;;;;30.88;11.65;;;;;;;5.96;72.26;101657.03;5111213;28;20467;-77
2021/10/01 04:13:09;;;;;;;27.65;10.63;;;;;;;6.06;72.40;101654.22;5112070;28;20039;-77
2021/10/01 04:15:41;;;;;;;28.73;12.02;;;;;;;6.11;72.65;101649.69;5110773;28;20047;-74
2021/10/01 04:18:08;;;;;;;28.52;11.38;;;;;;;6.17;72.15;101652.16;5111065;28;20105;-76
2021/10/01 04:20:36;;;;;;;32.03;12.50;;;;;;;6.26;71.93;101648.41;5093733;28;20128;-80
2021/10/01 04:23:02;;;;;;;31.80;11.38;;;;;;;6.37;71.81;101646.34;5112632;28;20047;-79
2021/10/01 04:25:47;;;;;;;29.02;10.88;;;;;;;6.45;70.83;101639.09;5111833;28;20096;-75
2021/10/01 04:28:13;;;;;;;26.25;10.38;;;;;;;6.49;70.75;101647.75;5110606;28;20031;-78
2021/10/01 04:30:44;;;;;;;27.98;10.60;;;;;;;6.40;70.99;101642.78;5109948;28;20043;-78
2021/10/01 04:33:13;;;;;;;29.75;10.88;;;;;;;6.46;70.96;101653.97;5110382;28;20396;-75
2021/10/01 04:35:41;;;;;;;42.75;14.77;;;;;;;6.35;70.86;101642.06;5093833;28;20042;-76
2021/10/01 04:38:07;;;;;;;30.95;12.07;;;;;;;6.28;70.75;101649.22;5110343;28;20043;-77
2021/10/01 04:40:33;;;;;;;28.85;10.93;;;;;;;6.26;71.59;101641.38;5110151;28;20704;-76
2021/10/01 04:43:00;;;;;;;29.45;11.77;;;;;;;6.34;71.49;101648.19;5093440;28;20376;-76
2021/10/01 04:45:27;;;;;;;28.88;11.10;;;;;;;6.35;71.74;101649.94;5093574;28;20035;-78
2021/10/01 04:47:53;;;;;;;29.60;10.80;;;;;;;6.39;71.36;101651.56;5110502;28;20035;-78
2021/10/01 04:50:19;;;;;;;30.60;11.30;;;;;;;6.41;71.10;101650.63;5110270;28;20187;-77
2021/10/01 04:52:46;;;;;;;35.00;12.10;;;;;;;6.52;70.71;101658.22;5110369;28;20375;-77
2021/10/01 04:55:12;;;;;;;39.42;17.55;;;;;;;6.36;70.97;101656.91;5110069;28;20052;-78
2021/10/01 04:57:39;;;;;;;27.40;10.75;;;;;;;6.26;71.14;101656.31;5110114;28;20043;-79
2021/10/01 05:00:23;;;;;;;31.23;11.57;;;;;;;6.32;71.45;101658.75;5111823;28;20047;-77
2021/10/01 05:03:12;;;;;;;33.80;11.50;;;;;;;6.47;71.55;101657.47;5048124;28;20061;-75
2021/10/01 05:05:57;;;;;;;31.20;13.35;;;;;;;6.56;70.37;101654.59;5047886;28;20110;-79
2021/10/01 05:08:56;;;;;;;35.08;11.30;;;;;;;6.45;70.90;101657.50;5008617;28;20048;-79
2021/10/01 05:11:40;;;;;;;39.28;11.85;;;;;;;6.61;69.97;101659.72;5048458;28;20052;-76
2021/10/01 05:14:44;;;;;;;35.88;12.30;;;;;;;6.59;70.57;101659.78;5010718;28;20525;-76
2021/10/01 05:17:29;;;;;;;33.17;11.15;;;;;;;6.62;70.46;101664.06;5024315;28;20044;-76
2021/10/01 05:20:13;;;;;;;33.83;10.48;;;;;;;6.75;70.39;101668.09;5052547;28;20052;-78
2021/10/01 05:22:47;;;;;;;31.35;11.45;;;;;;;6.92;70.03;101667.56;5019219;28;20041;-80
2021/10/01 05:25:13;;;;;;;38.40;13.82;;;;;;;6.84;69.43;101659.06;5035451;28;20099;-79
2021/10/01 05:27:39;;;;;;;32.38;12.30;;;;;;;6.81;69.13;101664.41;5035337;28;20057;-80
2021/10/01 05:30:06;;;;;;;37.45;12.80;;;;;;;6.84;69.41;101668.69;5052720;28;20100;-78
2021/10/01 05:32:34;;;;;;;28.90;11.23;;;;;;;6.97;69.07;101665.66;5052056;28;20051;-77
2021/10/01 05:35:01;;;;;;;33.28;12.77;;;;;;;6.86;68.85;101653.75;5052212;28;20037;-80
2021/10/01 05:37:28;;;;;;;35.20;11.90;;;;;;;6.82;68.77;101668.75;5052329;28;20049;-82
2021/10/01 05:39:54;;;;;;;28.27;10.77;;;;;;;6.93;69.33;101661.41;5062519;28;20339;-77
2021/10/01 05:42:20;;;;;;;35.85;12.80;;;;;;;7.10;68.63;101658.28;5114723;28;20134;-78
2021/10/01 05:44:46;;;;;;;31.58;12.25;;;;;;;7.00;68.00;101656.81;5114436;28;20127;-77
2021/10/01 05:47:47;;;;;;;31.10;11.00;;;;;;;7.21;67.67;101663.19;5083615;28;20126;-79
2021/10/01 05:50:33;;;;;;;26.10;11.70;;;;;;;7.25;67.88;101656.06;5114703;28;20048;-78
2021/10/01 05:56:20;;;;;;;32.75;12.10;;;;;;;7.00;67.99;101659.44;5114670;28;20031;-79
2021/10/01 05:58:58;;;;;;;38.83;13.15;;;;;;;6.97;67.56;101665.66;5114855;28;20063;-80
2021/10/01 06:01:25;;;;;;;37.13;13.85;;;;;;;7.04;66.64;101660.22;5113815;28;20716;-82
2021/10/01 06:03:51;;;;;;;38.55;14.10;;;;;;;6.99;66.80;101667.38;5114598;28;20043;-80
2021/10/01 06:06:18;;;;;;;30.23;11.88;;;;;;;7.05;67.09;101668.09;5116505;28;20051;-81
2021/10/01 06:08:44;;;;;;;34.97;14.68;;;;;;;7.13;67.65;101665.22;5114570;28;20107;-81
2021/10/01 06:11:10;;;;;;;29.83;12.85;;;;;;;7.41;66.70;101670.50;5114926;28;20047;-77
2021/10/01 06:13:38;;;;;;;30.08;12.80;;;;;;;7.56;65.68;101669.16;5096488;28;20046;-79
2021/10/01 06:16:04;;;;;;;31.20;11.88;;;;;;;7.48;66.14;101670.28;5114038;28;20074;-80
2021/10/01 06:18:30;;;;;;;32.80;12.93;;;;;;;7.32;66.80;101675.19;5113824;28;20044;-80
2021/10/01 06:20:56;;;;;;;33.60;15.60;;;;;;;7.26;66.92;101671.84;5114053;28;20071;-76
2021/10/01 06:23:23;;;;;;;35.67;12.32;;;;;;;7.26;66.61;101681.47;5114346;28;20082;-78
2021/10/01 06:25:49;;;;;;;36.13;12.60;;;;;;;7.30;66.21;101680.47;5111892;28;20051;-77
2021/10/01 06:28:15;;;;;;;32.17;12.50;;;;;;;7.29;66.32;101676.13;5114217;28;20293;-82
2021/10/01 06:30:41;;;;;;;34.13;12.23;;;;;;;7.20;66.21;101677.28;5113915;28;20437;-80
2021/10/01 06:33:07;;;;;;;63.97;20.98;;;;;;;7.25;66.48;101674.50;5114614;28;20042;-83
2021/10/01 06:35:33;;;;;;;31.95;12.85;;;;;;;7.22;65.99;101671.97;5113243;28;20035;-80
2021/10/01 06:37:59;;;;;;;35.28;12.57;;;;;;;7.18;65.96;101678.22;5114874;28;20046;-79
2021/10/01 06:40:25;;;;;;;35.25;12.88;;;;;;;7.18;66.08;101679.09;5115050;28;20450;-77
2021/10/01 06:42:52;;;;;;;32.97;11.77;;;;;;;7.11;65.76;101683.66;5113721;28;20070;-82
2021/10/01 06:45:23;;;;;;;33.85;13.05;;;;;;;6.97;66.12;101681.44;5115810;28;20044;-82
2021/10/01 06:47:56;;;;;;;35.72;14.40;;;;;;;7.12;65.80;101679.28;5115247;28;20192;-83
2021/10/01 06:53:20;;;;;;;40.58;13.52;;;;;;;7.28;65.08;101684.94;5114938;28;20039;-80
2021/10/01 08:20:15;;;;;;;84.10;28.02;;;;;;;7.45;60.79;101690.53;5112245;28;20514;-77
2021/10/01 08:22:41;;;;;;;45.37;15.83;;;;;;;7.47;61.15;101685.22;5112797;28;20039;-77
2021/10/01 08:25:07;;;;;;;40.35;16.30;;;;;;;7.74;60.97;101682.63;5111666;28;20066;-80
2021/10/01 08:27:35;;;;;;;47.15;17.40;;;;;;;7.98;60.31;101678.28;5113819;28;20082;-76
2021/10/01 08:30:06;;;;;;;57.13;21.33;;;;;;;8.05;60.21;101684.22;5113395;28;20047;-78
2021/10/01 08:32:36;;;;;;;60.38;19.10;;;;;;;7.93;60.45;101686.34;5113151;28;20111;-77
2021/10/01 08:35:03;;;;;;;52.92;19.02;;;;;;;7.91;59.93;101685.56;5114497;28;20146;-81
2021/10/01 08:37:29;;;;;;;35.75;13.77;;;;;;;7.83;59.74;101682.31;5116574;28;20078;-77
2021/10/01 08:39:55;;;;;;;51.60;19.38;;;;;;;8.01;60.14;101687.88;5114458;28;20063;-78
2021/10/01 08:42:39;;;;;;;46.47;17.20;;;;;;;8.08;59.90;101682.34;5114390;28;20043;-77
2021/10/01 08:45:09;;;;;;;45.67;17.30;;;;;;;8.05;59.92;101686.84;5094560;28;20050;-78
2021/10/01 08:47:35;;;;;;;42.22;17.02;;;;;;;7.94;59.62;101685.44;5111571;28;20443;-75
2021/10/01 08:50:03;;;;;;;36.95;15.30;;;;;;;7.87;59.78;101683.06;5113703;28;20492;-78
2021/10/01 08:52:29;;;;;;;39.90;17.05;;;;;;;7.83;59.99;101690.22;5120438;28;20126;-77
2021/10/01 08:54:55;;;;;;;40.70;14.82;;;;;;;7.80;60.04;101687.69;5118773;28;20519;-78
2021/10/01 08:57:21;;;;;;;43.25;15.48;;;;;;;8.02;59.96;101684.31;5100002;28;20054;-78
2021/10/01 08:59:47;;;;;;;41.33;17.02;;;;;;;8.24;59.67;101682.66;5118440;28;20035;-82
2021/10/01 09:02:14;;;;;;;44.70;18.48;;;;;;;8.33;58.80;101683.28;5119396;28;20055;-78
2021/10/01 09:04:40;;;;;;;48.10;17.88;;;;;;;8.32;58.40;101685.03;5100341;28;20160;-76
2021/10/01 09:07:06;;;;;;;43.50;16.15;;;;;;;8.40;58.17;101687.41;5118172;28;20503;-78
2021/10/01 09:09:36;;;;;;;44.95;18.40;;;;;;;8.36;58.01;101691.06;5118799;28;20077;-82
2021/10/01 09:12:02;;;;;;;39.55;17.40;;;;;;;8.25;58.58;101688.81;5118426;28;20055;-79
2021/10/01 09:14:28;;;;;;;45.00;18.25;;;;;;;8.17;58.61;101691.69;5099517;28;20067;-78
2021/10/01 09:16:54;;;;;;;39.55;16.40;;;;;;;8.21;58.46;101685.44;5101508;28;20039;-80
2021/10/01 09:19:21;;;;;;;42.15;16.17;;;;;;;8.14;59.03;101681.28;5117341;28;20042;-79
2021/10/01 09:21:54;;;;;;;49.27;20.60;;;;;;;8.22;58.74;101684.50;5116468;28;20047;-79
2021/10/01 09:24:27;;;;;;;48.00;19.58;;;;;;;8.14;59.22;101681.28;5118192;28;20300;-78
2021/10/01 09:26:54;;;;;;;40.53;17.38;;;;;;;8.28;58.69;101687.84;5117863;28;20056;-79
2021/10/01 09:29:32;;;;;;;44.65;20.02;;;;;;;8.18;58.89;101693.41;5099950;28;20476;-78
2021/10/01 09:32:21;;;;;;;43.15;17.20;;;;;;;7.98;59.11;101690.63;5117232;28;20035;-79
2021/10/01 09:34:48;;;;;;;41.42;16.85;;;;;;;7.91;59.43;101680.28;5115389;28;20118;-82
2021/10/01 09:37:30;;;;;;;46.13;19.23;;;;;;;7.94;59.71;101685.44;5117774;28;20120;-80
2021/10/01 09:40:12;;;;;;;46.58;18.98;;;;;;;7.97;59.39;101683.63;5085968;28;20112;-80
2021/10/01 09:42:47;;;;;;;49.00;19.30;;;;;;;7.87;60.29;101686.53;5114818;28;20075;-79
2021/10/01 09:45:16;;;;;;;37.03;15.82;;;;;;;7.84;60.35;101694.56;5098558;28;20465;-76
2021/10/01 09:47:54;;;;;;;34.88;15.57;;;;;;;7.75;61.08;101694.84;5116428;28;20088;-77
2021/10/01 09:50:22;;;;;;;34.70;13.50;;;;;;;7.68;60.92;101693.34;5115138;28;20047;-79
2021/10/01 09:53:05;;;;;;;48.17;19.20;;;;;;;7.72;60.98;101684.44;5115413;28;20104;-80
2021/10/01 09:55:46;;;;;;;81.18;31.63;;;;;;;7.67;61.40;101689.00;5116036;28;20039;-78
2021/10/01 09:58:16;;;;;;;75.88;26.85;;;;;;;7.81;61.18;101693.81;5102407;28;20050;-78
2021/10/01 10:01:07;;;;;;;47.35;19.35;;;;;;;7.94;61.05;101690.72;5117712;28;20048;-80
2021/10/01 10:03:36;;;;;;;60.35;23.73;;;;;;;7.90;61.21;101683.84;5099958;28;20130;-81
2021/10/01 10:06:11;;;;;;;42.67;16.27;;;;;;;7.80;60.62;101681.53;5114650;28;20468;-81
2021/10/01 10:08:40;;;;;;;41.17;16.90;;;;;;;7.86;60.53;101682.22;5114961;28;20047;-80
2021/10/01 10:11:13;;;;;;;37.13;16.02;;;;;;;7.98;60.72;101688.00;5115102;28;20055;-80
2021/10/01 10:13:46;;;;;;;37.45;16.05;;;;;;;8.02;59.99;101686.97;5114377;28;20039;-79
2021/10/01 10:16:14;;;;;;;64.88;25.45;;;;;;;8.06;60.59;101691.19;5116878;28;20047;-78
2021/10/01 10:18:40;;;;;;;36.65;17.02;;;;;;;7.94;60.46;101685.44;5117490;28;20075;-80
2021/10/01 10:21:09;;;;;;;69.57;25.15;;;;;;;7.99;60.82;101681.78;5116948;28;20517;-82
2021/10/01 10:23:35;;;;;;;48.50;18.02;;;;;;;8.06;60.59;101680.66;5113411;28;20047;-78
2021/10/01 10:26:01;;;;;;;40.25;16.25;;;;;;;8.12;60.37;101683.09;5115382;28;20043;-81
2021/10/01 10:28:27;;;;;;;43.70;17.58;;;;;;;7.88;60.50;101680.38;5114685;28;20131;-81
2021/10/01 10:30:55;;;;;;;38.92;15.77;;;;;;;8.08;60.70;101690.25;5113629;28;20416;-80
2021/10/01 10:33:57;;;;;;;50.55;21.63;;;;;;;8.03;60.56;101688.69;5096701;28;20040;-81
2021/10/01 10:36:28;;;;;;;47.67;19.35;;;;;;;7.93;60.88;101683.72;5052439;28;20056;-80
2021/10/01 10:38:56;;;;;;;53.80;22.20;;;;;;;7.99;61.04;101684.41;5051934;28;20045;-82
2021/10/01 10:41:27;;;;;;;60.00;21.80;;;;;;;8.15;60.08;101685.63;5052382;28;20043;-79
2021/10/01 10:43:53;;;;;;;49.40;21.75;;;;;;;8.12;60.08;101691.00;5052215;28;20603;-80
2021/10/01 10:46:34;;;;;;;54.00;20.85;;;;;;;8.18;60.07;101688.16;5053382;28;20048;-80
2021/10/01 10:49:57;;;;;;;53.45;20.90;;;;;;;8.51;59.46;101690.56;5053238;28;20049;-78
2021/10/01 10:52:13;;;;;;;50.85;20.75;;;;;;;8.49;59.18;101692.38;5047373;28;20045;-78
2021/10/01 10:54:46;;;;;;;55.90;21.73;;;;;;;8.49;59.30;101692.38;5052321;28;20372;-78
2021/10/01 10:57:28;;;;;;;54.50;23.65;;;;;;;8.38;59.59;101694.50;5035315;28;20532;-79
2021/10/01 11:00:04;;;;;;;59.70;24.20;;;;;;;8.09;60.02;101691.13;5051791;28;20053;-78
2021/10/01 11:02:46;;;;;;;53.47;23.00;;;;;;;8.18;60.14;101688.16;5035815;28;20051;-80
2021/10/01 11:05:26;;;;;;;84.57;33.50;;;;;;;8.07;60.05;101696.44;5052306;28;20061;-78
2021/10/01 11:08:01;;;;;;;57.22;23.30;;;;;;;8.00;60.48;101689.66;5036145;28;20079;-78
2021/10/01 11:10:42;;;;;;;50.15;22.73;;;;;;;8.24;60.38;101687.94;5051856;28;20548;-79
2021/10/01 11:13:23;;;;;;;54.72;24.45;;;;;;;8.25;59.77;101684.41;5115177;28;20411;-77
2021/10/01 11:16:07;;;;;;;58.05;24.45;;;;;;;8.13;60.12;101684.81;5114064;28;20100;-81
2021/10/01 11:18:54;;;;;;;53.20;24.20;;;;;;;8.00;60.59;101680.88;5115230;28;20539;-79
2021/10/01 11:21:26;;;;;;;55.63;23.98;;;;;;;7.84;60.61;101678.75;5114021;28;20047;-78
2021/10/01 11:24:01;;;;;;;55.22;25.20;;;;;;;7.92;60.64;101676.75;5113990;28;20065;-81
2021/10/01 11:26:32;;;;;;;56.58;26.75;;;;;;;7.78;60.73;101676.34;5113906;28;20043;-78
2021/10/01 11:28:58;;;;;;;70.38;28.73;;;;;;;7.76;61.47;101676.38;5114371;28;20411;-80
2021/10/01 11:31:38;;;;;;;61.42;25.85;;;;;;;7.69;61.71;101681.88;5113100;28;20048;-79
2021/10/01 11:34:04;;;;;;;68.65;31.08;;;;;;;7.86;61.66;101679.59;5113393;28;20048;-78
2021/10/01 11:36:30;;;;;;;69.97;29.30;;;;;;;7.90;61.73;101677.69;5113672;28;20051;-79
2021/10/01 11:39:15;;;;;;;72.20;31.15;;;;;;;7.92;61.03;101678.50;5114093;28;20376;-82
2021/10/01 11:41:48;;;;;;;72.60;31.95;;;;;;;8.12;60.80;101676.97;5113192;28;20051;-80
2021/10/01 11:44:15;;;;;;;74.05;31.17;;;;;;;8.25;60.36;101676.47;5112899;28;20036;-80
2021/10/01 11:46:47;;;;;;;81.73;36.33;;;;;;;8.25;60.09;101684.41;5114070;28;20043;-77
2021/10/01 11:49:15;;;;;;;83.60;36.20;;;;;;;8.19;59.92;101678.50;5113900;28;20274;-83
2021/10/01 11:51:41;;;;;;;82.82;35.85;;;;;;;8.15;60.06;101671.56;5114102;28;20054;-77
2021/10/01 11:54:15;;;;;;;74.70;32.72;;;;;;;8.06;60.14;101667.50;5113112;28;20035;-80
2021/10/01 11:57:09;;;;;;;70.35;31.48;;;;;;;8.21;59.97;101660.81;5113349;28;20126;-83
2021/10/01 11:59:57;;;;;;;74.88;33.47;;;;;;;8.03;59.69;101667.59;5078436;28;20056;-79
2021/10/01 12:02:34;;;;;;;79.05;31.80;;;;;;;7.96;60.54;101661.66;5111898;28;20521;-81
2021/10/01 12:05:42;;;;;;;65.20;29.00;;;;;;;7.93;60.20;101665.28;5112380;28;20035;-81
2021/10/01 12:08:10;;;;;;;70.38;30.90;;;;;;;8.02;60.57;101660.59;5108202;28;20496;-82
2021/10/01 12:10:39;;;;;;;64.07;27.38;;;;;;;7.91;60.86;101668.88;5112016;28;20457;-77
2021/10/01 12:13:10;;;;;;;65.25;29.08;;;;;;;8.03;60.76;101660.56;5112627;28;20101;-81
2021/10/01 12:15:41;;;;;;;60.15;26.75;;;;;;;8.02;60.44;101663.25;5094093;28;20108;-79
2021/10/01 12:18:24;;;;;;;63.95;25.77;;;;;;;7.83;61.24;101658.59;5078178;28;20157;-78
2021/10/01 12:20:50;;;;;;;63.97;25.70;;;;;;;7.75;61.47;101663.25;5113499;28;20044;-82
2021/10/01 12:23:47;;;;;;;66.15;27.13;;;;;;;7.81;61.19;101652.50;5113282;28;20058;-85
2021/10/01 12:26:48;;;;;;;64.67;26.80;;;;;;;7.74;61.07;101656.28;5104165;28;20051;-77
2021/10/01 12:29:17;;;;;;;59.38;24.20;;;;;;;7.68;61.68;101648.59;5109081;28;20281;-82
2021/10/01 12:31:53;;;;;;;57.67;23.80;;;;;;;7.58;61.66;101651.50;5097266;28;20161;-81
2021/10/01 12:34:30;;;;;;;58.58;24.83;;;;;;;7.38;61.68;101644.25;5095217;28;20044;-82
2021/10/01 12:37:14;;;;;;;59.42;24.90;;;;;;;7.42;62.68;101639.75;5094886;28;20051;-79
2021/10/01 12:39:42;;;;;;;61.10;24.75;;;;;;;7.38;62.42;101638.97;5113248;28;20468;-79
2021/10/01 12:42:11;;;;;;;61.40;27.75;;;;;;;7.43;62.65;101638.84;5112624;28;20066;-82
2021/10/01 12:44:39;;;;;;;64.63;26.95;;;;;;;7.55;62.37;101633.19;5094542;28;20047;-79
2021/10/01 12:47:15;;;;;;;65.45;28.35;;;;;;;7.75;61.94;101636.91;5078016;28;20411;-78
2021/10/01 12:49:43;;;;;;;63.40;24.55;;;;;;;7.64;61.37;101633.78;5112391;28;20138;-83
2021/10/01 12:52:21;;;;;;;59.15;25.75;;;;;;;7.68;62.13;101630.16;5112370;28;20035;-78
2021/10/01 12:55:04;;;;;;;67.90;27.27;;;;;;;7.57;61.45;101626.06;5112560;28;20047;-77
2021/10/01 12:57:37;;;;;;;67.20;25.60;;;;;;;7.40;61.94;101626.66;5111963;28;20040;-77
2021/10/01 13:00:03;;;;;;;64.15;25.20;;;;;;;7.52;62.48;101628.00;5112007;28;20047;-78
2021/10/01 13:02:50;;;;;;;67.07;27.35;;;;;;;7.58;62.25;101624.31;5112255;28;20507;-81
2021/10/01 13:05:26;;;;;;;72.65;28.52;;;;;;;7.77;62.04;101632.47;5093465;28;20051;-77
2021/10/01 13:07:53;;;;;;;94.72;39.03;;;;;;;7.78;61.93;101629.75;5114478;28;20094;-82
2021/10/01 13:10:55;;;;;;;137.98;78.75;;;;;;;7.83;61.83;101619.09;5112124;28;20131;-79